createdAt,value
2018-12-19T00:01:48.334Z,96262.82
2018-12-19T00:04:18.164Z,96260.61
2018-12-19T00:06:47.990Z,96240.62
2018-12-19T00:09:18.036Z,96245.09
2018-12-19T00:11:48.072Z,96249.91
2018-12-19T00:14:17.891Z,96245.03
2018-12-19T00:16:47.684Z,96249.75
2018-12-19T00:19:17.852Z,96248.75
2018-12-19T00:21:47.771Z,96247.79
2018-12-19T00:24:17.648Z,96246.07
2018-12-19T00:26:47.912Z,96241.56
2018-12-19T00:29:17.890Z,96234.80
2018-12-19T00:31:47.640Z,96232.03
2018-12-19T00:34:17.629Z,96225.34
2018-12-19T00:36:47.431Z,96219.14
2018-12-19T00:39:17.310Z,96222.66
2018-12-19T00:41:47.242Z,96213.53
2018-12-19T00:44:17.088Z,96222.95
2018-12-19T00:46:47.114Z,96218.89
2018-12-19T00:49:16.920Z,96215.50
2018-12-19T00:51:46.771Z,96221.48
2018-12-19T00:54:16.974Z,96217.14
2018-12-19T00:56:46.820Z,96216.12
2018-12-19T01:02:54.060Z,96223.05
2018-12-19T01:05:23.912Z,96222.83
2018-12-19T01:07:53.722Z,96229.11
2018-12-19T01:10:23.529Z,96222.15
2018-12-19T01:12:53.412Z,96223.58
2018-12-19T01:15:23.421Z,96225.97
2018-12-19T01:17:53.213Z,96222.98
2018-12-19T01:20:23.141Z,96219.84
2018-12-19T01:22:52.965Z,96226.70
2018-12-19T01:25:22.839Z,96231.33
2018-12-19T01:27:52.688Z,96241.49
2018-12-19T01:30:22.469Z,96229.44
2018-12-19T01:32:52.359Z,96240.78
2018-12-19T01:35:22.859Z,96240.62
2018-12-19T01:37:52.837Z,96249.15
2018-12-19T01:40:22.651Z,96247.32
2018-12-19T01:42:52.535Z,96253.77
2018-12-19T01:45:22.371Z,96239.14
2018-12-19T01:47:53.531Z,96240.32
2018-12-19T01:50:23.579Z,96243.08
2018-12-19T01:52:53.459Z,96236.69
2018-12-19T01:55:23.339Z,96244.61
2018-12-19T01:57:53.155Z,96237.38
2018-12-19T02:00:27.064Z,96239.03
2018-12-19T02:02:56.977Z,96234.22
2018-12-19T02:05:26.801Z,96229.99
2018-12-19T02:07:56.627Z,96235.02
2018-12-19T02:10:26.469Z,96225.25
2018-12-19T02:12:56.327Z,96231.89
2018-12-19T02:15:26.270Z,96231.94
2018-12-19T02:17:56.186Z,96228.48
2018-12-19T02:20:26.045Z,96226.75
2018-12-19T02:22:55.859Z,96227.79
2018-12-19T02:25:25.731Z,96230.70
2018-12-19T02:27:55.669Z,96228.72
2018-12-19T02:30:25.610Z,96223.12
2018-12-19T02:32:55.503Z,96224.75
2018-12-19T02:35:25.419Z,96222.17
2018-12-19T02:37:55.234Z,96215.14
2018-12-19T02:40:25.223Z,96216.14
2018-12-19T02:42:55.237Z,96205.34
2018-12-19T02:45:25.158Z,96215.13
2018-12-19T02:47:55.400Z,96207.05
2018-12-19T02:50:25.295Z,96201.24
2018-12-19T02:52:55.371Z,96203.72
2018-12-19T02:55:25.287Z,96209.34
2018-12-19T02:57:55.020Z,96199.59
2018-12-19T03:00:24.770Z,96205.25
2018-12-19T03:02:54.554Z,96203.47
2018-12-19T03:05:25.297Z,96205.66
2018-12-19T03:07:55.110Z,96208.75
2018-12-19T03:10:25.241Z,96210.80
2018-12-19T03:12:55.017Z,96210.44
2018-12-19T03:15:24.852Z,96204.39
2018-12-19T03:17:54.616Z,96196.97
2018-12-19T03:20:24.758Z,96203.19
2018-12-19T03:22:54.580Z,96202.29
2018-12-19T03:25:24.663Z,96202.53
2018-12-19T03:27:54.454Z,96201.33
2018-12-19T03:30:24.588Z,96196.05
2018-12-19T03:32:55.194Z,96194.79
2018-12-19T03:35:25.021Z,96189.83
2018-12-19T03:37:54.875Z,96191.89
2018-12-19T03:40:25.293Z,96188.23
2018-12-19T03:42:55.113Z,96190.65
2018-12-19T03:45:25.416Z,96196.04
2018-12-19T03:47:55.576Z,96191.67
2018-12-19T03:50:25.400Z,96192.09
2018-12-19T03:52:55.172Z,96192.84
2018-12-19T03:55:25.026Z,96189.37
2018-12-19T03:57:55.468Z,96185.91
2018-12-19T04:00:25.635Z,96192.70
2018-12-19T04:02:55.453Z,96184.56
2018-12-19T04:05:27.067Z,96178.61
2018-12-19T04:07:57.796Z,96190.41
2018-12-19T04:10:27.875Z,96188.94
2018-12-19T04:12:58.387Z,96193.39
2018-12-19T04:15:28.382Z,96191.84
2018-12-19T04:17:58.526Z,96199.13
2018-12-19T04:20:28.330Z,96188.14
2018-12-19T04:22:58.264Z,96187.79
2018-12-19T04:25:28.015Z,96187.50
2018-12-19T04:27:57.828Z,96182.05
2018-12-19T04:30:27.840Z,96189.57
2018-12-19T04:32:57.832Z,96195.45
2018-12-19T04:35:27.588Z,96196.33
2018-12-19T04:37:57.776Z,96195.42
2018-12-19T04:40:27.554Z,96204.13
2018-12-19T04:42:57.348Z,96200.70
2018-12-19T04:45:27.402Z,96203.91
2018-12-19T04:47:57.285Z,96199.22
2018-12-19T04:50:27.078Z,96197.05
2018-12-19T04:52:56.875Z,96191.30
2018-12-19T04:55:26.969Z,96197.34
2018-12-19T04:57:56.851Z,96196.78
2018-12-19T05:00:26.903Z,96203.91
2018-12-19T05:02:56.726Z,96195.32
2018-12-19T05:05:26.785Z,96186.14
2018-12-19T05:07:57.257Z,96186.37
2018-12-19T05:10:27.058Z,96177.88
2018-12-19T05:12:56.953Z,96172.20
2018-12-19T05:15:27.447Z,96175.73
2018-12-19T05:17:57.229Z,96180.86
2018-12-19T05:20:27.027Z,96182.50
2018-12-19T05:22:57.062Z,96180.86
2018-12-19T05:25:26.829Z,96176.53
2018-12-19T05:27:57.359Z,96183.65
2018-12-19T05:30:27.166Z,96176.19
2018-12-19T05:32:57.495Z,96185.66
2018-12-19T05:35:27.322Z,96193.38
2018-12-19T05:37:57.187Z,96193.36
2018-12-19T05:40:27.102Z,96194.41
2018-12-19T05:42:56.850Z,96205.35
2018-12-19T05:45:26.683Z,96194.80
2018-12-19T05:47:56.907Z,96196.80
2018-12-19T05:50:29.627Z,96204.39
2018-12-19T05:52:59.662Z,96202.24
2018-12-19T05:55:29.481Z,96202.84
2018-12-19T05:57:59.535Z,96211.52
2018-12-19T06:00:29.446Z,96209.45
2018-12-19T06:02:59.209Z,96215.17
2018-12-19T06:05:28.989Z,96205.75
2018-12-19T06:07:58.810Z,96202.10
2018-12-19T06:10:28.846Z,96211.06
2018-12-19T06:12:58.708Z,96209.33
2018-12-19T06:15:28.782Z,96211.56
2018-12-19T06:17:58.545Z,96217.48
2018-12-19T06:20:28.765Z,96218.75
2018-12-19T06:22:58.601Z,96220.70
2018-12-19T06:25:28.417Z,96216.37
2018-12-19T06:27:58.624Z,96226.59
2018-12-19T06:30:29.647Z,96219.52
2018-12-19T06:32:59.397Z,96228.03
2018-12-19T06:35:29.505Z,96224.28
2018-12-19T06:37:59.267Z,96222.55
2018-12-19T06:40:32.691Z,96220.38
2018-12-19T06:43:00.888Z,96217.81
2018-12-19T06:45:30.617Z,96207.09
2018-12-19T06:48:00.417Z,96200.52
2018-12-19T06:50:30.276Z,96200.19
2018-12-19T06:53:00.026Z,96209.42
2018-12-19T06:55:29.813Z,96200.20
2018-12-19T06:57:59.825Z,96203.69
2018-12-19T07:00:29.933Z,96197.33
2018-12-19T07:02:59.656Z,96207.19
2018-12-19T07:05:30.006Z,96196.29
2018-12-19T07:07:59.793Z,96183.94
2018-12-19T07:10:29.525Z,96187.33
2018-12-19T07:12:59.236Z,96180.58
2018-12-19T07:15:28.980Z,96182.67
2018-12-19T07:17:59.793Z,96182.09
2018-12-19T07:20:29.531Z,96196.47
2018-12-19T07:22:59.297Z,96190.58
2018-12-19T07:25:29.116Z,96202.28
2018-12-19T07:27:58.847Z,96204.19
2018-12-19T07:30:28.641Z,96206.91
2018-12-19T07:32:58.402Z,96221.42
2018-12-19T07:35:28.151Z,96210.23
2018-12-19T07:37:59.308Z,96216.30
2018-12-19T07:40:29.194Z,96227.23
2018-12-19T07:42:58.936Z,96227.49
2018-12-19T07:45:28.686Z,96215.72
2018-12-19T07:47:58.430Z,96216.95
2018-12-19T07:50:28.174Z,96221.07
2018-12-19T07:52:58.370Z,96216.30
2018-12-19T07:58:12.523Z,96214.64
2018-12-19T08:00:42.476Z,96217.17
2018-12-19T08:03:12.520Z,96213.37
2018-12-19T08:05:42.322Z,96217.67
2018-12-19T08:11:48.356Z,96228.77
2018-12-19T08:14:18.123Z,96229.56
2018-12-19T08:16:47.977Z,96219.34
2018-12-19T08:19:17.842Z,96215.52
2018-12-19T08:21:47.670Z,96210.23
2018-12-19T08:24:17.576Z,96213.19
2018-12-19T08:26:47.878Z,96234.57
2018-12-19T08:29:18.329Z,96228.64
2018-12-19T08:31:48.904Z,96219.34
2018-12-19T08:34:19.613Z,96221.84
2018-12-19T08:36:50.392Z,96225.03
2018-12-19T08:39:21.098Z,96217.36
2018-12-19T08:41:52.310Z,96214.41
2018-12-19T08:44:22.420Z,96214.51
2018-12-19T08:46:52.184Z,96227.47
2018-12-19T08:49:21.960Z,96228.73
2018-12-19T08:51:51.740Z,96233.55
2018-12-19T08:54:21.465Z,96231.90
2018-12-19T08:56:51.238Z,96228.34
2018-12-19T08:59:20.939Z,96219.61
2018-12-19T09:01:50.708Z,96211.72
2018-12-19T09:04:25.778Z,96219.83
2018-12-19T09:06:52.247Z,96217.77
2018-12-19T09:09:22.006Z,96217.70
2018-12-19T09:11:51.733Z,96220.38
2018-12-19T09:14:21.463Z,96231.72
2018-12-19T09:16:51.165Z,96236.14
2018-12-19T09:19:20.902Z,96230.44
2018-12-19T09:21:50.629Z,96225.69
2018-12-19T09:24:20.372Z,96233.30
2018-12-19T09:26:50.108Z,96230.61
2018-12-19T09:29:19.870Z,96233.81
2018-12-19T09:31:50.263Z,96239.22
2018-12-19T09:34:19.972Z,96237.52
2018-12-19T09:36:49.742Z,96240.78
2018-12-19T09:39:19.462Z,96230.93
2018-12-19T09:41:49.168Z,96219.95
2018-12-19T09:44:18.886Z,96211.36
2018-12-19T09:46:48.642Z,96217.09
2018-12-19T09:49:18.404Z,96221.82
2018-12-19T09:51:48.152Z,96221.31
2018-12-19T09:54:18.066Z,96220.97
2018-12-19T09:56:47.773Z,96224.61
2018-12-19T09:59:18.151Z,96213.97
2018-12-19T10:01:47.898Z,96216.05
2018-12-19T10:04:17.642Z,96205.27
2018-12-19T10:06:47.362Z,96200.73
2018-12-19T10:09:17.066Z,96193.73
2018-12-19T10:11:46.774Z,96194.38
2018-12-19T10:14:17.107Z,96183.44
2018-12-19T10:16:46.850Z,96181.14
2018-12-19T10:19:17.082Z,96172.68
2018-12-19T10:21:47.470Z,96162.83
2018-12-19T10:24:17.474Z,96162.34
2018-12-19T10:26:47.208Z,96155.97
2018-12-19T10:29:16.974Z,96158.89
2018-12-19T10:31:46.712Z,96160.53
2018-12-19T10:34:16.460Z,96165.16
2018-12-19T10:36:46.196Z,96168.59
2018-12-19T10:39:18.106Z,96162.30
2018-12-19T10:41:47.862Z,96168.03
2018-12-19T10:44:18.349Z,96171.56
2018-12-19T10:46:48.107Z,96169.02
2018-12-19T10:49:17.875Z,96169.85
2018-12-19T10:51:47.594Z,96173.78
2018-12-19T10:54:17.322Z,96173.34
2018-12-19T10:56:47.085Z,96173.77
2018-12-19T10:59:16.939Z,96168.18
2018-12-19T11:01:46.786Z,96163.46
2018-12-19T11:04:16.751Z,96163.78
2018-12-19T11:06:46.451Z,96154.24
2018-12-19T11:09:16.158Z,96150.50
2018-12-19T11:11:46.162Z,96148.44
2018-12-19T11:14:16.440Z,96140.25
2018-12-19T11:16:46.471Z,96133.93
2018-12-19T11:19:16.264Z,96137.19
2018-12-19T11:21:45.965Z,96134.73
2018-12-19T11:24:16.031Z,96132.80
2018-12-19T11:26:46.521Z,96130.79
2018-12-19T11:29:16.288Z,96121.91
2018-12-19T11:31:46.158Z,96125.81
2018-12-19T11:34:15.991Z,96117.78
2018-12-19T11:36:45.911Z,96123.13
2018-12-19T11:39:15.657Z,96131.39
2018-12-19T11:41:45.887Z,96124.02
2018-12-19T11:44:15.689Z,96125.04
2018-12-19T11:46:45.722Z,96105.78
2018-12-19T11:49:15.779Z,96109.59
2018-12-19T11:51:46.261Z,96114.63
2018-12-19T11:54:16.049Z,96126.19
2018-12-19T11:56:45.805Z,96112.44
2018-12-19T11:59:15.588Z,96108.58
2018-12-19T12:01:46.135Z,96107.44
2018-12-19T12:04:15.878Z,96098.29
2018-12-19T12:06:45.667Z,96091.47
2018-12-19T12:09:15.454Z,96091.76
2018-12-19T12:11:45.785Z,96089.06
2018-12-19T12:14:15.933Z,96099.89
2018-12-19T12:16:46.248Z,96099.60
2018-12-19T12:19:16.236Z,96100.81
2018-12-19T12:21:45.961Z,96089.91
2018-12-19T12:24:15.700Z,96087.33
2018-12-19T12:26:45.453Z,96083.09
2018-12-19T12:29:15.170Z,96074.56
2018-12-19T12:31:44.940Z,96068.92
2018-12-19T12:34:14.788Z,96064.47
2018-12-19T12:36:44.554Z,96060.87
2018-12-19T12:39:14.280Z,96050.05
2018-12-19T12:41:44.022Z,96047.67
2018-12-19T12:44:13.789Z,96044.30
2018-12-19T12:46:43.511Z,96036.14
2018-12-19T12:49:13.314Z,96036.69
2018-12-19T12:51:43.026Z,96034.45
2018-12-19T12:54:12.773Z,96024.03
2018-12-19T12:56:42.534Z,96028.84
2018-12-19T12:59:12.267Z,96020.95
2018-12-19T13:01:42.216Z,96027.17
2018-12-19T13:04:11.935Z,96020.43
2018-12-19T13:06:41.678Z,96013.38
2018-12-19T13:09:11.428Z,96004.27
2018-12-19T13:11:41.912Z,95998.48
2018-12-19T13:14:12.110Z,95995.28
2018-12-19T13:16:42.028Z,95985.25
2018-12-19T13:19:11.748Z,95980.00
2018-12-19T13:21:41.720Z,95972.48
2018-12-19T13:24:11.426Z,95965.20
2018-12-19T13:26:41.176Z,95960.05
2018-12-19T13:29:10.895Z,95954.13
2018-12-19T13:31:40.628Z,95947.84
2018-12-19T13:34:10.380Z,95945.94
2018-12-19T13:36:40.114Z,95934.66
2018-12-19T13:39:10.512Z,95933.08
2018-12-19T13:41:40.234Z,95931.73
2018-12-19T13:44:09.962Z,95931.95
2018-12-19T13:46:39.710Z,95927.14
2018-12-19T13:49:09.412Z,95925.26
2018-12-19T13:51:39.138Z,95920.98
2018-12-19T13:54:09.131Z,95923.56
2018-12-19T13:56:38.882Z,95915.73
2018-12-19T13:59:09.913Z,95909.91
2018-12-19T14:01:39.623Z,95898.73
2018-12-19T14:04:10.325Z,95893.80
2018-12-19T14:06:40.104Z,95901.62
2018-12-19T14:09:10.783Z,95900.95
2018-12-19T14:11:40.785Z,95905.09
2018-12-19T14:14:10.965Z,95911.58
2018-12-19T14:16:41.187Z,95909.69
2018-12-19T14:19:11.405Z,95911.59
2018-12-19T14:21:41.153Z,95905.11
2018-12-19T14:24:10.886Z,95895.11
2018-12-19T14:26:41.051Z,95889.75
2018-12-19T14:29:10.775Z,95889.19
2018-12-19T14:31:40.521Z,95883.27
2018-12-19T14:34:10.297Z,95879.58
2018-12-19T14:36:40.374Z,95873.73
2018-12-19T14:39:10.080Z,95870.49
2018-12-19T14:41:39.821Z,95875.64
2018-12-19T14:44:09.540Z,95872.59
2018-12-19T14:46:39.274Z,95874.38
2018-12-19T14:49:13.993Z,95885.11
2018-12-19T14:51:40.858Z,95882.66
2018-12-19T14:54:10.785Z,95880.19
2018-12-19T14:56:40.494Z,95871.69
2018-12-19T14:59:10.289Z,95868.78
2018-12-19T15:01:40.053Z,95865.52
2018-12-19T15:04:09.817Z,95866.41
2018-12-19T15:06:39.587Z,95867.64
2018-12-19T15:09:09.349Z,95868.34
2018-12-19T15:11:39.235Z,95867.13
2018-12-19T15:14:08.965Z,95869.27
2018-12-19T15:16:38.991Z,95874.42
2018-12-19T15:19:08.755Z,95870.07
2018-12-19T15:21:38.788Z,95878.00
2018-12-19T15:24:08.990Z,95874.86
2018-12-19T15:26:38.795Z,95877.57
2018-12-19T15:29:08.841Z,95880.03
2018-12-19T15:31:38.609Z,95886.16
2018-12-19T15:34:08.691Z,95890.31
2018-12-19T15:36:39.047Z,95899.95
2018-12-19T15:39:10.593Z,95896.70
2018-12-19T15:41:40.642Z,95910.12
2018-12-19T15:44:10.427Z,95915.27
2018-12-19T15:46:40.229Z,95931.27
2018-12-19T15:49:09.995Z,95932.30
2018-12-19T15:51:41.023Z,95940.36
2018-12-19T15:54:10.817Z,95948.98
2018-12-19T15:56:40.863Z,95958.39
2018-12-19T15:59:10.661Z,95958.38
2018-12-19T16:01:40.442Z,95963.08
2018-12-19T16:04:10.219Z,95970.36
2018-12-19T16:06:40.275Z,95971.36
2018-12-19T16:09:10.063Z,95970.59
2018-12-19T16:11:39.871Z,95970.38
2018-12-19T16:14:09.620Z,95977.66
2018-12-19T16:16:39.505Z,95976.52
2018-12-19T16:19:09.278Z,95982.34
2018-12-19T16:21:39.045Z,95979.66
2018-12-19T16:24:08.798Z,95978.44
2018-12-19T16:26:38.536Z,95989.84
2018-12-19T16:29:08.342Z,95997.02
2018-12-19T16:31:38.108Z,96002.52
2018-12-19T16:34:07.823Z,96007.23
2018-12-19T16:36:37.613Z,96012.60
2018-12-19T16:39:10.361Z,96020.67
2018-12-19T16:41:40.096Z,96023.34
2018-12-19T16:44:09.852Z,96020.22
2018-12-19T16:46:39.932Z,96027.83
2018-12-19T16:49:09.707Z,96031.97
2018-12-19T16:51:39.430Z,96039.78
2018-12-19T16:54:09.191Z,96053.13
2018-12-19T16:56:38.929Z,96044.38
2018-12-19T16:59:08.693Z,96048.41
2018-12-19T17:01:38.721Z,96049.98
2018-12-19T17:04:08.452Z,96048.41
2018-12-19T17:06:38.276Z,96047.53
2018-12-19T17:09:09.059Z,96053.14
2018-12-19T17:11:38.836Z,96056.95
2018-12-19T17:14:08.594Z,96056.39
2018-12-19T17:16:38.283Z,96062.34
2018-12-19T17:19:08.689Z,96065.12
2018-12-19T17:21:38.427Z,96063.58
2018-12-19T17:24:08.399Z,96063.91
2018-12-19T17:26:38.094Z,96067.14
2018-12-19T17:29:08.181Z,96070.19
2018-12-19T17:31:38.171Z,96077.13
2018-12-19T17:34:07.808Z,96074.67
2018-12-19T17:36:37.804Z,96073.43
2018-12-19T17:39:08.192Z,96072.65
2018-12-19T17:41:37.915Z,96071.19
2018-12-19T17:44:07.828Z,96078.14
2018-12-19T17:46:37.497Z,96075.34
2018-12-19T17:49:07.224Z,96076.25
2018-12-19T17:51:37.180Z,96077.45
2018-12-19T17:54:07.262Z,96080.61
2018-12-19T17:56:36.970Z,96085.20
2018-12-19T17:59:07.740Z,96083.39
2018-12-19T18:01:37.758Z,96088.21
2018-12-19T18:04:07.626Z,96084.97
2018-12-19T18:06:37.869Z,96087.11
2018-12-19T18:09:11.310Z,96084.53
2018-12-19T18:11:40.983Z,96091.14
2018-12-19T18:14:11.266Z,96092.58
2018-12-19T18:16:40.906Z,96089.01
2018-12-19T18:19:10.678Z,96084.30
2018-12-19T18:21:40.319Z,96084.73
2018-12-19T18:24:09.970Z,96081.14
2018-12-19T18:26:40.021Z,96072.62
2018-12-19T18:29:09.694Z,96072.70
2018-12-19T18:31:39.327Z,96067.13
2018-12-19T18:34:08.967Z,96072.39
2018-12-19T18:36:38.639Z,96068.23
2018-12-19T18:39:10.730Z,96070.36
2018-12-19T18:41:40.425Z,96064.86
2018-12-19T18:44:10.077Z,96062.29
2018-12-19T18:46:39.771Z,96055.56
2018-12-19T18:49:09.427Z,96051.52
2018-12-19T18:51:41.038Z,96049.94
2018-12-19T18:54:10.721Z,96047.92
2018-12-19T18:56:40.398Z,96049.34
2018-12-19T18:59:10.097Z,96038.69
2018-12-19T19:01:40.028Z,96031.83
2018-12-19T19:04:09.668Z,96023.21
2018-12-19T19:06:39.419Z,96026.02
2018-12-19T19:09:09.713Z,96023.67
2018-12-19T19:11:40.086Z,96027.30
2018-12-19T19:14:10.149Z,96027.97
2018-12-19T19:16:39.783Z,96023.19
2018-12-19T19:19:09.466Z,96026.30
2018-12-19T19:21:40.395Z,96016.85
2018-12-19T19:24:11.401Z,96019.08
2018-12-19T19:26:41.111Z,96013.03
2018-12-19T19:29:10.863Z,96012.83
2018-12-19T19:31:40.604Z,96006.89
2018-12-19T19:34:10.501Z,96009.09
2018-12-19T19:36:40.679Z,96005.08
2018-12-19T19:39:10.886Z,96002.98
2018-12-19T19:41:41.097Z,96000.17
2018-12-19T19:44:11.257Z,96003.78
2018-12-19T19:46:41.029Z,96014.56
2018-12-19T19:49:10.748Z,96012.53
2018-12-19T19:51:40.617Z,96018.17
2018-12-19T19:54:10.263Z,96013.52
2018-12-19T19:56:39.959Z,96013.70
2018-12-19T19:59:09.609Z,96011.05
2018-12-19T20:01:39.303Z,96012.89
2018-12-19T20:04:08.962Z,96006.59
2018-12-19T20:06:39.005Z,96010.06
2018-12-19T20:09:09.985Z,96008.41
2018-12-19T20:11:39.758Z,96006.34
2018-12-19T20:14:09.669Z,96004.77
2018-12-19T20:16:45.105Z,96004.50
2018-12-19T20:19:14.742Z,96005.76
2018-12-19T20:21:44.395Z,96003.66
2018-12-19T20:24:14.081Z,96004.61
2018-12-19T20:26:43.719Z,96002.51
2018-12-19T20:29:13.378Z,96001.63
2018-12-19T20:31:43.065Z,96001.84
2018-12-19T20:34:13.160Z,96012.66
2018-12-19T20:36:42.848Z,96018.71
2018-12-19T20:39:12.495Z,96014.42
2018-12-19T20:41:42.181Z,96018.00
2018-12-19T20:44:12.655Z,96018.36
2018-12-19T20:46:42.367Z,96014.48
2018-12-19T20:49:11.998Z,96006.09
2018-12-19T20:51:41.647Z,96002.48
2018-12-19T20:54:12.117Z,95998.27
2018-12-19T20:56:41.808Z,95986.35
2018-12-19T20:59:11.502Z,95993.42
2018-12-19T21:01:41.509Z,95994.30
2018-12-19T21:04:11.715Z,95990.27
2018-12-19T21:06:41.684Z,95993.55
2018-12-19T21:09:11.375Z,95994.30
2018-12-19T21:11:41.060Z,95989.83
2018-12-19T21:14:10.752Z,95985.55
2018-12-19T21:17:44.309Z,95991.03
2018-12-19T21:20:14.420Z,95996.70
2018-12-19T21:22:44.543Z,95997.08
2018-12-19T21:25:14.201Z,95994.77
2018-12-19T21:27:43.940Z,95999.44
2018-12-19T21:30:13.603Z,96001.45
2018-12-19T21:32:43.256Z,95997.64
2018-12-19T21:35:13.156Z,96001.25
2018-12-19T21:37:42.948Z,96003.05
2018-12-19T21:40:13.035Z,96003.03
2018-12-19T21:42:43.252Z,96008.99
2018-12-19T21:45:13.196Z,96017.32
2018-12-19T21:47:42.937Z,96023.38
2018-12-19T21:50:12.706Z,96013.95
2018-12-19T21:52:43.603Z,96024.41
2018-12-19T21:55:13.610Z,96026.75
2018-12-19T21:57:43.390Z,96023.80
2018-12-19T22:00:17.812Z,96022.94
2018-12-19T22:02:48.005Z,96020.24
2018-12-19T22:05:18.278Z,96019.69
2018-12-19T22:07:48.784Z,96020.89
2018-12-19T22:10:18.794Z,96017.97
2018-12-19T22:12:48.644Z,96026.06
2018-12-19T22:15:18.683Z,96030.00
2018-12-19T22:17:51.196Z,96024.78
2018-12-19T22:20:21.686Z,96029.94
2018-12-19T22:22:52.407Z,96034.88
2018-12-19T22:25:22.202Z,96029.38
2018-12-19T22:27:52.521Z,96028.15
2018-12-19T22:30:22.956Z,96030.62
2018-12-19T22:32:52.752Z,96038.98
2018-12-19T22:35:22.748Z,96029.14
2018-12-19T22:37:52.805Z,96027.49
2018-12-19T22:40:22.548Z,96035.80
2018-12-19T22:42:52.364Z,96033.23
2018-12-19T22:45:22.172Z,96033.78
2018-12-19T22:47:52.501Z,96029.93
2018-12-19T22:50:22.788Z,96032.94
2018-12-19T22:52:53.328Z,96023.17
2018-12-19T22:55:23.497Z,96017.97
2018-12-19T22:57:53.472Z,96018.94
2018-12-19T23:00:24.423Z,96020.05
2018-12-19T23:02:59.937Z,96020.59
2018-12-19T23:05:35.402Z,96021.38
2018-12-19T23:08:05.674Z,96022.87
2018-12-19T23:14:15.464Z,96022.86
2018-12-19T23:16:46.116Z,96017.36
2018-12-19T23:19:16.062Z,96017.28
2018-12-19T23:21:46.291Z,96009.87
2018-12-19T23:24:16.784Z,96003.82
2018-12-19T23:26:48.481Z,96012.52
2018-12-19T23:29:21.593Z,96017.45
2018-12-19T23:31:51.647Z,96015.58
2018-12-19T23:34:21.679Z,96017.47
2018-12-19T23:36:52.106Z,96018.76
2018-12-19T23:39:22.327Z,96013.38
2018-12-19T23:41:52.682Z,96014.25
2018-12-19T23:44:29.472Z,96017.70
2018-12-19T23:46:59.682Z,96019.48
2018-12-19T23:49:29.827Z,96025.92
2018-12-19T23:51:59.917Z,96029.41
2018-12-19T23:54:30.232Z,96039.27
2018-12-19T23:57:00.642Z,96031.62
2018-12-19T23:59:30.882Z,96034.80
